createdAt,value
2018-05-01T00:01:17.084Z,2.63
2018-05-01T00:03:44.726Z,3.03
2018-05-01T00:06:12.396Z,3.10
2018-05-01T00:08:40.008Z,2.80
2018-05-01T00:11:07.633Z,2.47
2018-05-01T00:13:35.275Z,2.70
2018-05-01T00:16:02.906Z,2.97
2018-05-01T00:18:30.515Z,2.53
2018-05-01T00:20:58.150Z,3.03
2018-05-01T00:23:25.753Z,2.90
2018-05-01T00:25:53.405Z,3.10
2018-05-01T00:28:21.049Z,3.23
2018-05-01T00:30:48.677Z,3.40
2018-05-01T00:33:16.383Z,2.83
2018-05-01T00:35:44.016Z,2.67
2018-05-01T00:38:11.622Z,2.37
2018-05-01T00:40:39.251Z,2.93
2018-05-01T00:43:06.893Z,3.17
2018-05-01T00:45:34.519Z,2.30
2018-05-01T00:48:02.125Z,2.60
2018-05-01T00:50:29.746Z,2.83
2018-05-01T00:52:57.349Z,2.50
2018-05-01T00:55:26.594Z,2.50
2018-05-01T00:57:54.231Z,3.03
2018-05-01T01:00:21.878Z,2.50
2018-05-01T01:02:49.490Z,2.60
2018-05-01T01:05:17.090Z,1.90
2018-05-01T01:07:44.776Z,2.40
2018-05-01T01:10:12.381Z,2.33
2018-05-01T01:12:40.024Z,2.40
2018-05-01T01:15:07.639Z,2.57
2018-05-01T01:17:35.265Z,3.00
2018-05-01T01:20:02.984Z,2.30
2018-05-01T01:22:30.623Z,2.97
2018-05-01T01:24:58.222Z,2.00
2018-05-01T01:27:25.875Z,2.83
2018-05-01T01:29:53.487Z,2.53
2018-05-01T01:32:21.190Z,2.67
2018-05-01T01:34:48.858Z,2.10
2018-05-01T01:37:15.949Z,2.30
2018-05-01T01:39:43.018Z,2.10
2018-05-01T01:42:10.202Z,1.93
2018-05-01T01:44:37.279Z,1.70
2018-05-01T01:47:04.367Z,2.00
2018-05-01T01:49:31.460Z,2.23
2018-05-01T01:51:58.602Z,1.77
2018-05-01T01:54:25.760Z,2.07
2018-05-01T01:56:52.854Z,1.90
2018-05-01T01:59:19.918Z,1.67
2018-05-01T02:01:47.107Z,1.83
2018-05-01T02:04:14.179Z,1.77
2018-05-01T02:06:41.278Z,1.70
2018-05-01T02:09:08.449Z,2.20
2018-05-01T02:11:35.554Z,1.53
2018-05-01T02:14:02.661Z,1.50
2018-05-01T02:16:29.735Z,1.60
2018-05-01T02:18:56.831Z,1.63
2018-05-01T02:21:23.893Z,1.10
2018-05-01T02:23:51.046Z,1.30
2018-05-01T02:26:18.203Z,1.50
2018-05-01T02:28:45.344Z,1.53
2018-05-01T02:31:12.410Z,1.30
2018-05-01T02:33:39.556Z,1.10
2018-05-01T02:36:06.640Z,1.40
2018-05-01T02:38:33.856Z,1.20
2018-05-01T02:41:01.003Z,1.50
2018-05-01T02:43:28.156Z,1.40
2018-05-01T02:45:55.221Z,1.30
2018-05-01T02:48:22.317Z,1.20
2018-05-01T02:50:49.387Z,1.40
2018-05-01T02:53:16.473Z,1.10
2018-05-01T02:55:43.544Z,1.17
2018-05-01T02:58:10.630Z,1.40
2018-05-01T03:00:37.794Z,1.93
2018-05-01T03:03:04.884Z,1.50
2018-05-01T03:05:31.995Z,1.60
2018-05-01T03:07:59.095Z,1.47
2018-05-01T03:10:26.190Z,1.63
2018-05-01T03:12:53.284Z,1.73
2018-05-01T03:15:20.363Z,2.13
2018-05-01T03:17:47.460Z,1.90
2018-05-01T03:20:14.536Z,1.50
2018-05-01T03:22:41.744Z,2.27
2018-05-01T03:25:08.895Z,1.93
2018-05-01T03:27:35.990Z,2.30
2018-05-01T03:30:03.099Z,1.77
2018-05-01T03:32:30.176Z,2.07
2018-05-01T03:34:57.299Z,1.50
2018-05-01T03:37:24.366Z,1.87
2018-05-01T03:39:51.492Z,1.87
2018-05-01T03:42:18.640Z,1.63
2018-05-01T03:44:45.743Z,1.40
2018-05-01T03:47:12.805Z,1.90
2018-05-01T03:49:39.885Z,1.50
2018-05-01T03:52:07.035Z,1.60
2018-05-01T03:54:34.131Z,1.63
2018-05-01T03:57:01.230Z,1.60
2018-05-01T03:59:28.481Z,1.10
2018-05-01T04:01:55.555Z,1.43
2018-05-01T04:04:22.659Z,1.20
2018-05-01T04:06:49.730Z,1.27
2018-05-01T04:09:16.877Z,1.30
2018-05-01T04:11:43.945Z,1.20
2018-05-01T04:14:11.087Z,1.27
2018-05-01T04:16:38.229Z,1.90
2018-05-01T04:19:05.338Z,1.07
2018-05-01T04:21:32.411Z,1.10
2018-05-01T04:23:59.505Z,0.70
2018-05-01T04:26:26.627Z,1.23
2018-05-01T04:28:53.723Z,0.90
2018-05-01T04:31:20.793Z,1.03
2018-05-01T04:33:47.984Z,0.93
2018-05-01T04:36:15.135Z,1.43
2018-05-01T04:38:42.228Z,1.03
2018-05-01T04:41:09.325Z,1.03
2018-05-01T04:43:36.397Z,0.90
2018-05-01T04:46:03.490Z,0.83
2018-05-01T04:48:30.549Z,1.10
2018-05-01T04:50:57.643Z,1.03
2018-05-01T04:53:24.713Z,1.00
2018-05-01T04:55:51.816Z,1.53
2018-05-01T04:58:18.888Z,1.03
2018-05-01T05:00:46.027Z,1.23
2018-05-01T05:03:13.107Z,1.00
2018-05-01T05:05:40.209Z,1.20
2018-05-01T05:08:07.283Z,1.20
2018-05-01T05:10:34.376Z,0.90
2018-05-01T05:13:01.447Z,1.00
2018-05-01T05:15:28.543Z,1.13
2018-05-01T05:17:55.615Z,0.80
2018-05-01T05:20:22.800Z,0.90
2018-05-01T05:22:49.875Z,1.23
2018-05-01T05:25:16.963Z,0.87
2018-05-01T05:27:44.068Z,1.07
2018-05-01T05:30:11.166Z,0.90
2018-05-01T05:32:38.233Z,0.80
2018-05-01T05:35:05.322Z,1.00
2018-05-01T05:37:32.396Z,1.10
2018-05-01T05:39:59.520Z,1.00
2018-05-01T05:42:26.658Z,1.20
2018-05-01T05:44:53.718Z,1.10
2018-05-01T05:47:20.863Z,1.07
2018-05-01T05:49:47.935Z,0.93
2018-05-01T05:52:15.028Z,0.90
2018-05-01T05:54:42.205Z,0.90
2018-05-01T05:57:09.294Z,1.20
2018-05-01T05:59:36.354Z,0.90
2018-05-01T06:02:03.449Z,0.90
2018-05-01T06:04:30.527Z,1.10
2018-05-01T06:06:57.613Z,1.07
2018-05-01T06:09:24.678Z,0.90
2018-05-01T06:11:51.762Z,0.87
2018-05-01T06:14:18.826Z,1.00
2018-05-01T06:16:45.956Z,0.90
2018-05-01T06:19:13.027Z,0.90
2018-05-01T06:21:40.120Z,0.93
2018-05-01T06:24:07.192Z,1.10
2018-05-01T06:26:34.351Z,0.97
2018-05-01T06:29:01.418Z,0.70
2018-05-01T06:31:28.505Z,0.97
2018-05-01T06:33:55.572Z,0.90
2018-05-01T06:36:22.654Z,1.10
2018-05-01T06:38:49.723Z,0.73
2018-05-01T06:41:16.806Z,0.77
2018-05-01T06:43:43.870Z,1.47
2018-05-01T06:46:11.047Z,0.97
2018-05-01T06:48:38.123Z,0.90
2018-05-01T06:51:05.234Z,0.70
2018-05-01T06:53:32.307Z,1.00
2018-05-01T06:55:59.379Z,0.70
2018-05-01T06:58:26.468Z,0.90
2018-05-01T07:00:53.539Z,0.60
2018-05-01T07:03:20.718Z,0.80
2018-05-01T07:05:47.842Z,1.00
2018-05-01T07:08:14.930Z,1.20
2018-05-01T07:10:41.998Z,0.70
2018-05-01T07:13:09.091Z,0.73
2018-05-01T07:15:36.153Z,1.07
2018-05-01T07:18:03.238Z,0.77
2018-05-01T07:20:30.305Z,0.90
2018-05-01T07:22:57.399Z,0.90
2018-05-01T07:25:24.469Z,0.70
2018-05-01T07:27:51.564Z,0.90
2018-05-01T07:30:18.637Z,0.83
2018-05-01T07:32:45.774Z,0.77
2018-05-01T07:35:12.843Z,0.77
2018-05-01T07:37:39.970Z,0.90
2018-05-01T07:40:07.038Z,1.50
2018-05-01T07:42:34.131Z,0.87
2018-05-01T07:45:01.221Z,0.80
2018-05-01T07:47:28.379Z,0.80
2018-05-01T07:49:55.522Z,1.43
2018-05-01T07:52:22.670Z,0.73
2018-05-01T07:54:49.730Z,0.97
2018-05-01T07:57:16.870Z,0.70
2018-05-01T07:59:44.022Z,1.43
2018-05-01T08:02:11.179Z,0.77
2018-05-01T08:04:38.242Z,0.97
2018-05-01T08:07:05.454Z,0.90
2018-05-01T08:09:32.533Z,0.80
2018-05-01T08:11:59.656Z,1.00
2018-05-01T08:14:26.725Z,1.03
2018-05-01T08:16:53.802Z,0.70
2018-05-01T08:19:20.885Z,0.70
2018-05-01T08:21:47.954Z,0.83
2018-05-01T08:24:15.042Z,1.00
2018-05-01T08:26:42.106Z,0.63
2018-05-01T08:29:09.199Z,0.67
2018-05-01T08:31:36.262Z,0.60
2018-05-01T08:34:03.355Z,0.60
2018-05-01T08:36:30.418Z,0.70
2018-05-01T08:38:57.527Z,0.73
2018-05-01T08:41:24.599Z,0.70
2018-05-01T08:43:51.719Z,0.90
2018-05-01T08:46:18.794Z,0.70
2018-05-01T08:48:57.391Z,0.67
2018-05-01T08:51:36.707Z,0.90
2018-05-01T08:54:03.872Z,0.70
2018-05-01T08:56:31.019Z,0.67
2018-05-01T08:58:58.110Z,0.60
2018-05-01T09:01:25.174Z,0.73
2018-05-01T09:03:52.267Z,0.80
2018-05-01T09:06:19.380Z,0.70
2018-05-01T09:08:46.467Z,0.60
2018-05-01T09:11:13.609Z,0.70
2018-05-01T09:13:40.702Z,1.40
2018-05-01T09:16:07.766Z,0.70
2018-05-01T09:18:34.860Z,0.60
2018-05-01T09:21:01.926Z,0.70
2018-05-01T09:23:29.079Z,0.93
2018-05-01T09:25:56.144Z,0.77
2018-05-01T09:28:23.210Z,0.90
2018-05-01T09:30:50.390Z,0.77
2018-05-01T09:33:17.464Z,0.83
2018-05-01T09:35:46.251Z,0.97
2018-05-01T09:38:13.487Z,0.70
2018-05-01T09:40:40.577Z,0.70
2018-05-01T09:43:07.648Z,0.50
2018-05-01T09:45:34.846Z,0.50
2018-05-01T09:48:02.003Z,0.60
2018-05-01T09:50:29.101Z,0.57
2018-05-01T09:52:56.699Z,0.60
2018-05-01T09:55:24.321Z,0.67
2018-05-01T09:57:52.043Z,1.03
2018-05-01T10:00:24.526Z,0.70
2018-05-01T10:02:52.126Z,0.60
2018-05-01T10:05:19.750Z,0.90
2018-05-01T10:07:47.402Z,0.60
2018-05-01T10:10:15.026Z,0.60
2018-05-01T10:12:42.638Z,0.70
2018-05-01T10:15:10.266Z,0.50
2018-05-01T10:17:37.890Z,0.50
2018-05-01T10:20:05.527Z,0.80
2018-05-01T10:22:33.175Z,0.80
2018-05-01T10:25:00.806Z,0.90
2018-05-01T10:27:28.500Z,0.60
2018-05-01T10:29:56.162Z,0.63
2018-05-01T10:32:23.774Z,0.70
2018-05-01T10:34:51.744Z,0.77
2018-05-01T10:37:19.459Z,0.63
2018-05-01T10:39:47.100Z,0.50
2018-05-01T10:42:14.774Z,0.60
2018-05-01T10:44:42.540Z,0.60
2018-05-01T10:47:10.175Z,0.70
2018-05-01T10:49:37.866Z,0.77
2018-05-01T10:52:05.529Z,0.60
2018-05-01T10:54:33.245Z,0.60
2018-05-01T10:57:00.887Z,0.70
2018-05-01T10:59:28.518Z,0.70
2018-05-01T11:01:56.147Z,0.83
2018-05-01T11:04:23.749Z,0.67
2018-05-01T11:06:51.409Z,0.60
2018-05-01T11:09:19.075Z,0.80
2018-05-01T11:11:46.713Z,0.63
2018-05-01T11:14:14.322Z,0.60
2018-05-01T11:16:41.952Z,0.63
2018-05-01T11:19:09.616Z,1.00
2018-05-01T11:21:37.264Z,0.60
2018-05-01T11:24:04.938Z,0.80
2018-05-01T11:26:32.562Z,0.60
2018-05-01T11:29:00.170Z,0.80
2018-05-01T11:31:27.823Z,0.60
2018-05-01T11:33:55.435Z,0.60
2018-05-01T11:36:23.155Z,0.53
2018-05-01T11:38:50.775Z,0.60
2018-05-01T11:41:18.406Z,0.70
2018-05-01T11:43:46.048Z,0.70
2018-05-01T11:46:13.674Z,0.80
2018-05-01T11:48:41.360Z,0.63
2018-05-01T11:51:09.026Z,0.80
2018-05-01T11:53:36.689Z,0.63
2018-05-01T11:56:04.350Z,0.63
2018-05-01T11:58:31.962Z,0.60
2018-05-01T12:00:59.684Z,0.70
2018-05-01T12:03:27.328Z,0.53
2018-05-01T12:05:54.944Z,0.53
2018-05-01T12:08:22.567Z,0.60
2018-05-01T12:10:50.178Z,0.60
2018-05-01T12:13:17.801Z,0.80
2018-05-01T12:15:45.455Z,1.00
2018-05-01T12:18:13.767Z,0.80
2018-05-01T12:20:41.373Z,0.60
2018-05-01T12:23:08.993Z,0.80
2018-05-01T12:25:36.613Z,0.63
2018-05-01T12:28:04.273Z,0.60
2018-05-01T12:30:31.934Z,0.70
2018-05-01T12:32:59.608Z,0.80
2018-05-01T12:35:27.219Z,0.70
2018-05-01T12:37:54.845Z,0.60
2018-05-01T12:40:22.449Z,0.63
2018-05-01T12:42:50.088Z,0.60
2018-05-01T12:45:17.707Z,0.50
2018-05-01T12:47:45.338Z,0.83
2018-05-01T12:50:13.033Z,0.90
2018-05-01T12:52:40.796Z,0.90
2018-05-01T12:55:08.409Z,0.73
2018-05-01T12:57:36.137Z,0.90
2018-05-01T13:00:03.743Z,2.07
2018-05-01T13:02:31.371Z,0.80
2018-05-01T13:04:58.979Z,0.80
2018-05-01T13:07:26.608Z,0.80
2018-05-01T13:09:54.226Z,0.83
2018-05-01T13:12:21.959Z,0.60
2018-05-01T13:14:49.553Z,0.63
2018-05-01T13:17:17.221Z,1.00
2018-05-01T13:19:44.886Z,0.70
2018-05-01T13:22:12.488Z,1.20
2018-05-01T13:24:40.142Z,0.97
2018-05-01T13:27:07.750Z,0.80
2018-05-01T13:29:35.727Z,1.00
2018-05-01T13:32:03.411Z,0.90
2018-05-01T13:34:31.072Z,1.10
2018-05-01T13:36:58.687Z,1.00
2018-05-01T13:39:26.391Z,0.90
2018-05-01T13:41:54.050Z,1.03
2018-05-01T13:44:21.687Z,0.80
2018-05-01T13:46:49.295Z,1.00
2018-05-01T13:49:16.928Z,1.67
2018-05-01T13:51:44.552Z,0.93
2018-05-01T13:54:12.177Z,0.70
2018-05-01T13:56:39.822Z,1.30
2018-05-01T13:59:07.498Z,0.60
2018-05-01T14:01:35.101Z,0.90
2018-05-01T14:04:02.753Z,1.10
2018-05-01T14:06:30.477Z,1.30
2018-05-01T14:08:58.033Z,1.30
2018-05-01T14:11:25.648Z,0.87
2018-05-01T14:13:53.291Z,0.77
2018-05-01T14:16:20.901Z,1.10
2018-05-01T14:18:48.587Z,0.90
2018-05-01T14:21:16.242Z,0.90
2018-05-01T14:23:43.875Z,1.00
2018-05-01T14:26:11.571Z,0.90
2018-05-01T14:28:39.181Z,2.23
2018-05-01T14:31:06.819Z,1.10
2018-05-01T14:33:34.431Z,1.40
2018-05-01T14:36:02.067Z,2.50
2018-05-01T14:38:29.792Z,1.90
2018-05-01T14:40:57.418Z,1.50
2018-05-01T14:43:25.040Z,1.70
2018-05-01T14:45:52.719Z,1.77
2018-05-01T14:48:20.441Z,1.50
2018-05-01T14:50:48.103Z,1.50
2018-05-01T14:53:15.711Z,1.70
2018-05-01T14:55:43.340Z,1.80
2018-05-01T14:58:10.946Z,1.50
2018-05-01T15:00:38.571Z,1.30
2018-05-01T15:03:06.174Z,1.40
2018-05-01T15:05:34.021Z,1.60
2018-05-01T15:08:01.632Z,1.40
2018-05-01T15:10:29.272Z,1.57
2018-05-01T15:12:56.955Z,1.77
2018-05-01T15:15:24.617Z,1.83
2018-05-01T15:17:52.237Z,2.20
2018-05-01T15:20:19.947Z,1.60
2018-05-01T15:22:47.559Z,2.20
2018-05-01T15:25:15.196Z,2.27
2018-05-01T15:27:42.799Z,1.80
2018-05-01T15:30:10.431Z,1.57
2018-05-01T15:32:38.046Z,1.50
2018-05-01T15:35:05.680Z,2.00
2018-05-01T15:37:33.309Z,1.60
2018-05-01T15:40:00.927Z,1.80
2018-05-01T15:42:28.550Z,1.70
2018-05-01T15:44:56.149Z,2.10
2018-05-01T15:47:23.783Z,1.93
2018-05-01T15:49:51.391Z,1.80
2018-05-01T15:52:19.053Z,2.23
2018-05-01T15:54:46.694Z,2.20
2018-05-01T15:57:14.379Z,2.33
2018-05-01T15:59:41.991Z,2.50
2018-05-01T16:02:09.628Z,2.23
2018-05-01T16:04:38.071Z,2.00
2018-05-01T16:07:05.716Z,2.37
2018-05-01T16:09:33.512Z,2.20
2018-05-01T16:12:01.176Z,2.87
2018-05-01T16:14:28.783Z,2.33
2018-05-01T16:16:56.409Z,2.30
2018-05-01T16:19:24.010Z,2.13
2018-05-01T16:21:51.634Z,2.33
2018-05-01T16:24:19.239Z,2.03
2018-05-01T16:26:46.863Z,2.47
2018-05-01T16:29:14.469Z,1.80
2018-05-01T16:31:42.098Z,2.67
2018-05-01T16:34:09.707Z,2.07
2018-05-01T16:36:37.385Z,2.53
2018-05-01T16:39:04.993Z,2.10
2018-05-01T16:41:32.617Z,2.47
2018-05-01T16:44:00.232Z,2.40
2018-05-01T16:46:27.869Z,2.37
2018-05-01T16:48:55.480Z,2.70
2018-05-01T16:51:23.165Z,2.90
2018-05-01T16:53:50.783Z,2.43
2018-05-01T16:56:18.483Z,2.70
2018-05-01T16:58:46.151Z,3.33
2018-05-01T17:01:13.805Z,3.17
2018-05-01T17:03:41.430Z,3.10
2018-05-01T17:06:09.138Z,2.57
2018-05-01T17:08:36.771Z,3.23
2018-05-01T17:11:04.457Z,2.10
2018-05-01T17:13:32.102Z,2.10
2018-05-01T17:15:59.706Z,2.73
2018-05-01T17:18:27.452Z,2.83
2018-05-01T17:20:55.067Z,3.77
2018-05-01T17:23:22.779Z,3.60
2018-05-01T17:25:50.385Z,3.17
2018-05-01T17:28:18.014Z,3.27
2018-05-01T17:30:45.667Z,3.30
2018-05-01T17:33:13.303Z,2.83
2018-05-01T17:35:40.918Z,4.77
2018-05-01T17:38:08.552Z,3.70
2018-05-01T17:40:36.154Z,2.90
2018-05-01T17:43:03.783Z,3.47
2018-05-01T17:45:31.426Z,2.90
2018-05-01T17:47:59.057Z,3.27
2018-05-01T17:50:26.667Z,3.23
2018-05-01T17:52:54.305Z,3.80
2018-05-01T17:55:21.983Z,3.37
2018-05-01T17:57:49.606Z,2.70
2018-05-01T18:00:17.220Z,3.30
2018-05-01T18:02:44.872Z,3.20
2018-05-01T18:05:13.147Z,3.63
2018-05-01T18:07:40.802Z,2.87
2018-05-01T18:10:08.429Z,2.93
2018-05-01T18:12:36.050Z,2.83
2018-05-01T18:15:03.688Z,3.00
2018-05-01T18:17:31.299Z,2.87
2018-05-01T18:19:58.921Z,2.70
2018-05-01T18:22:26.579Z,2.50
2018-05-01T18:24:54.242Z,3.13
2018-05-01T18:27:21.846Z,3.17
2018-05-01T18:29:49.567Z,3.30
2018-05-01T18:32:17.221Z,3.30
2018-05-01T18:34:44.857Z,3.23
2018-05-01T18:37:12.462Z,3.00
2018-05-01T18:39:40.106Z,2.83
2018-05-01T18:42:07.775Z,3.93
2018-05-01T18:44:35.433Z,3.40
2018-05-01T18:47:03.048Z,3.70
2018-05-01T18:49:30.670Z,2.97
2018-05-01T18:51:58.283Z,3.63
2018-05-01T18:54:25.909Z,3.70
2018-05-01T18:56:53.522Z,3.53
2018-05-01T18:59:21.215Z,3.00
2018-05-01T19:01:48.822Z,3.50
2018-05-01T19:04:16.496Z,4.07
2018-05-01T19:06:44.074Z,3.90
2018-05-01T19:09:11.769Z,3.70
2018-05-01T19:11:39.371Z,3.60
2018-05-01T19:14:06.997Z,3.80
2018-05-01T19:16:34.597Z,5.23
2018-05-01T19:19:02.229Z,3.80
2018-05-01T19:21:29.870Z,5.00
2018-05-01T19:23:57.474Z,6.50
2018-05-01T19:26:25.097Z,4.20
2018-05-01T19:28:52.745Z,4.40
2018-05-01T19:31:20.416Z,4.40
2018-05-01T19:33:48.030Z,3.60
2018-05-01T19:36:15.664Z,5.57
2018-05-01T19:38:43.301Z,4.20
2018-05-01T19:41:10.929Z,4.40
2018-05-01T19:43:38.535Z,5.70
2018-05-01T19:46:06.176Z,9.97
2018-05-01T19:48:33.843Z,9.80
2018-05-01T19:51:01.570Z,9.23
2018-05-01T19:53:29.143Z,7.13
2018-05-01T19:55:56.830Z,6.03
2018-05-01T19:58:24.442Z,4.43
2018-05-01T20:00:52.080Z,4.67
2018-05-01T20:03:19.754Z,4.70
2018-05-01T20:05:47.478Z,4.37
2018-05-01T20:08:15.085Z,3.93
2018-05-01T20:10:42.731Z,5.13
2018-05-01T20:13:10.333Z,4.23
2018-05-01T20:15:37.964Z,3.73
2018-05-01T20:18:05.595Z,4.70
2018-05-01T20:20:33.249Z,3.90
2018-05-01T20:23:00.849Z,3.80
2018-05-01T20:25:28.575Z,4.13
2018-05-01T20:27:56.181Z,3.93
2018-05-01T20:30:23.881Z,5.50
2018-05-01T20:32:51.461Z,4.57
2018-05-01T20:35:19.126Z,3.93
2018-05-01T20:37:46.759Z,4.50
2018-05-01T20:40:14.362Z,5.33
2018-05-01T20:42:42.019Z,4.30
2018-05-01T20:45:09.632Z,4.70
2018-05-01T20:47:37.257Z,4.30
2018-05-01T20:50:04.866Z,4.30
2018-05-01T20:52:32.499Z,5.60
2018-05-01T20:55:00.112Z,4.30
2018-05-01T20:57:27.786Z,4.43
2018-05-01T20:59:55.390Z,5.00
2018-05-01T21:02:23.025Z,3.97
2018-05-01T21:04:50.666Z,4.47
2018-05-01T21:07:18.294Z,4.70
2018-05-01T21:09:45.894Z,4.37
2018-05-01T21:12:13.519Z,4.03
2018-05-01T21:14:41.139Z,5.10
2018-05-01T21:17:08.762Z,5.53
2018-05-01T21:19:36.443Z,5.10
2018-05-01T21:22:04.169Z,5.37
2018-05-01T21:24:31.771Z,5.70
2018-05-01T21:26:59.432Z,6.10
2018-05-01T21:29:27.085Z,5.87
2018-05-01T21:31:54.717Z,6.53
2018-05-01T21:34:22.315Z,6.10
2018-05-01T21:36:49.974Z,5.50
2018-05-01T21:39:17.644Z,5.23
2018-05-01T21:41:45.284Z,5.57
2018-05-01T21:44:12.966Z,6.37
2018-05-01T21:46:40.585Z,5.77
2018-05-01T21:49:08.218Z,6.40
2018-05-01T21:51:35.820Z,6.47
2018-05-01T21:54:03.506Z,6.67
2018-05-01T21:56:31.114Z,6.90
2018-05-01T21:58:58.834Z,7.10
2018-05-01T22:01:26.503Z,6.40
2018-05-01T22:03:54.163Z,7.47
2018-05-01T22:06:21.772Z,6.03
2018-05-01T22:08:49.488Z,6.57
2018-05-01T22:11:17.086Z,6.97
2018-05-01T22:13:44.727Z,8.23
2018-05-01T22:16:12.344Z,7.83
2018-05-01T22:18:39.977Z,8.20
2018-05-01T22:21:07.695Z,8.70
2018-05-01T22:23:35.322Z,8.10
2018-05-01T22:26:03.018Z,7.40
2018-05-01T22:28:30.659Z,6.80
2018-05-01T22:30:58.262Z,8.37
2018-05-01T22:33:25.883Z,7.33
2018-05-01T22:35:53.482Z,7.63
2018-05-01T22:38:21.106Z,7.87
2018-05-01T22:40:48.706Z,7.33
2018-05-01T22:43:16.339Z,7.53
2018-05-01T22:45:43.953Z,7.50
2018-05-01T22:48:11.591Z,6.77
2018-05-01T22:50:39.203Z,7.40
2018-05-01T22:53:06.831Z,7.00
2018-05-01T22:55:34.442Z,7.33
2018-05-01T22:58:02.123Z,7.40
2018-05-01T23:00:29.736Z,7.57
2018-05-01T23:02:57.346Z,7.00
2018-05-01T23:05:24.983Z,7.63
2018-05-01T23:07:52.680Z,6.97
2018-05-01T23:10:20.302Z,6.67
2018-05-01T23:12:48.004Z,6.73
2018-05-01T23:15:15.636Z,7.37
2018-05-01T23:17:43.328Z,6.70
2018-05-01T23:20:10.953Z,6.57
2018-05-01T23:22:38.556Z,7.30
2018-05-01T23:25:06.177Z,7.20
2018-05-01T23:27:33.804Z,6.20
2018-05-01T23:30:01.540Z,6.07
2018-05-01T23:32:29.135Z,6.47
2018-05-01T23:34:56.756Z,7.33
2018-05-01T23:37:24.427Z,6.60
2018-05-01T23:39:52.055Z,6.23
2018-05-01T23:42:19.672Z,5.77
2018-05-01T23:44:47.362Z,5.30
2018-05-01T23:47:14.940Z,5.13
2018-05-01T23:49:42.567Z,5.80
2018-05-01T23:52:10.204Z,5.13
2018-05-01T23:54:37.826Z,5.27
2018-05-01T23:57:05.512Z,5.87
2018-05-01T23:59:33.147Z,4.77
